Time;durP1;ratioP1;P1;durP2;ratioP2;P2;SDS_P1;SDS_P2;PMS_P1;PMS_P2;Temp;Humidity;BMP_temperature;BMP_pressure;BME280_temperature;BME280_humidity;BME280_pressure;Samples;Min_cycle;Max_cycle;Signal;HPM_P1;HPM_P2
2021/08/10 00:00:31;;;;;;;11.68;6.00;;;;;;;;;;5034061;28;20037;-88
2021/08/10 00:02:57;;;;;;;7.72;4.95;;;;;;;;;;5040665;28;20403;-88
2021/08/10 00:05:23;;;;;;;9.95;6.28;;;;;;;;;;5060884;28;20051;-88
2021/08/10 00:07:50;;;;;;;8.27;5.65;;;;;;;;;;5036664;28;20065;-87
2021/08/10 00:10:16;;;;;;;9.07;5.70;;;;;;;;;;5037861;28;20114;-89
2021/08/10 00:12:42;;;;;;;9.55;5.47;;;;;;;;;;5062097;28;20560;-88
2021/08/10 00:15:09;;;;;;;12.18;5.70;;;;;;;;;;5056185;28;20053;-89
2021/08/10 00:17:35;;;;;;;8.63;5.10;;;;;;;;;;5035866;28;20417;-87
2021/08/10 00:20:02;;;;;;;11.68;5.50;;;;;;;;;;5063178;28;20044;-88
2021/08/10 00:22:28;;;;;;;8.90;5.50;;;;;;;;;;5059252;28;20056;-87
2021/08/10 00:24:54;;;;;;;8.45;5.28;;;;;;;;;;5046618;28;20913;-88
2021/08/10 00:27:21;;;;;;;10.55;5.80;;;;;;;;;;5028932;28;20048;-87
2021/08/10 00:29:47;;;;;;;10.27;5.85;;;;;;;;;;5035438;28;20049;-86
2021/08/10 00:32:13;;;;;;;7.97;5.03;;;;;;;;;;5023781;28;20060;-88
2021/08/10 00:34:39;;;;;;;9.25;5.47;;;;;;;;;;5040273;28;20052;-87
2021/08/10 00:37:06;;;;;;;9.55;4.93;;;;;;;;;;5064384;28;20123;-87
2021/08/10 00:39:32;;;;;;;8.40;5.20;;;;;;;;;;5061088;28;20076;-88
2021/08/10 00:41:59;;;;;;;10.23;5.65;;;;;;;;;;5040862;28;20084;-88
2021/08/10 00:44:25;;;;;;;8.68;5.88;;;;;;;;;;5063151;28;20052;-87
2021/08/10 00:46:51;;;;;;;9.07;5.70;;;;;;;;;;5042961;28;20060;-88
2021/08/10 00:49:17;;;;;;;10.48;5.60;;;;;;;;;;5030586;28;20455;-87
2021/08/10 00:51:44;;;;;;;10.95;5.50;;;;;;;;;;5059841;28;20056;-88
2021/08/10 00:54:10;;;;;;;9.93;5.60;;;;;;;;;;5039485;28;20048;-88
2021/08/10 00:56:36;;;;;;;8.02;5.43;;;;;;;;;;5037414;28;20098;-87
2021/08/10 00:59:03;;;;;;;8.52;5.60;;;;;;;;;;5033646;28;20098;-88
2021/08/10 01:01:29;;;;;;;12.02;6.05;;;;;;;;;;5040476;28;20052;-88
2021/08/10 01:03:55;;;;;;;11.23;5.88;;;;;;;;;;5039883;28;20106;-88
2021/08/10 01:06:28;;;;;;;9.32;6.00;;;;;;;;;;5039917;28;20048;-86
2021/08/10 01:08:59;;;;;;;10.50;5.70;;;;;;;;;;5059080;28;20078;-87
2021/08/10 01:11:26;;;;;;;7.45;5.60;;;;;;;;;;5037873;28;20045;-89
2021/08/10 01:13:56;;;;;;;9.30;5.50;;;;;;;;;;5032151;28;20072;-88
2021/08/10 01:16:28;;;;;;;10.02;5.50;;;;;;;;;;5038278;28;20051;-88
2021/08/10 01:18:57;;;;;;;14.18;6.13;;;;;;;;;;5046375;28;20061;-88
2021/08/10 01:21:33;;;;;;;9.35;5.57;;;;;;;;;;5032386;28;20049;-89
2021/08/10 01:24:02;;;;;;;9.95;6.40;;;;;;;;;;5044289;28;20067;-88
2021/08/10 01:26:32;;;;;;;9.95;5.47;;;;;;;;;;5035148;28;20049;-89
2021/08/10 01:28:58;;;;;;;11.13;5.93;;;;;;;;;;5023058;28;20071;-89
2021/08/10 01:31:35;;;;;;;9.38;5.68;;;;;;;;;;5032513;28;20462;-89
2021/08/10 01:34:04;;;;;;;9.43;5.50;;;;;;;;;;5031635;28;20056;-90
2021/08/10 01:36:32;;;;;;;11.93;5.63;;;;;;;;;;5017811;28;20048;-89
2021/08/10 01:39:00;;;;;;;10.18;5.70;;;;;;;;;;5038308;28;20131;-88
2021/08/10 01:41:27;;;;;;;11.07;5.63;;;;;;;;;;5060843;28;20434;-89
2021/08/10 01:43:54;;;;;;;10.02;5.93;;;;;;;;;;5043207;28;20392;-90
2021/08/10 01:46:23;;;;;;;8.93;5.57;;;;;;;;;;5002255;28;20132;-88
2021/08/10 01:48:50;;;;;;;9.38;5.43;;;;;;;;;;5017229;28;20060;-89
2021/08/10 01:51:17;;;;;;;10.32;5.82;;;;;;;;;;5037631;28;20485;-88
2021/08/10 01:53:44;;;;;;;11.32;5.88;;;;;;;;;;5033947;28;20072;-89
2021/08/10 01:56:10;;;;;;;11.98;6.43;;;;;;;;;;5035863;28;20053;-90
2021/08/10 01:58:38;;;;;;;14.13;6.50;;;;;;;;;;5019523;28;22908;-89
2021/08/10 02:01:05;;;;;;;7.13;5.55;;;;;;;;;;5045689;28;20052;-90
2021/08/10 02:03:31;;;;;;;9.52;6.70;;;;;;;;;;5015447;28;20103;-88
2021/08/10 02:05:58;;;;;;;12.25;6.25;;;;;;;;;;5034481;28;20067;-89
2021/08/10 02:08:26;;;;;;;10.60;6.40;;;;;;;;;;5042902;28;20060;-88
2021/08/10 02:10:53;;;;;;;11.80;6.68;;;;;;;;;;5034820;28;20127;-88
2021/08/10 02:13:20;;;;;;;9.10;6.15;;;;;;;;;;5044839;28;20056;-89
2021/08/10 02:15:47;;;;;;;10.65;7.32;;;;;;;;;;5032286;28;20551;-88
2021/08/10 02:18:14;;;;;;;9.88;5.95;;;;;;;;;;5039913;28;20049;-89
2021/08/10 02:20:43;;;;;;;11.32;7.30;;;;;;;;;;5017429;28;20056;-88
2021/08/10 02:23:12;;;;;;;10.85;6.70;;;;;;;;;;5032937;28;20489;-89
2021/08/10 02:25:40;;;;;;;10.77;7.38;;;;;;;;;;5040197;28;20051;-89
2021/08/10 02:28:08;;;;;;;10.27;6.80;;;;;;;;;;5048831;28;20048;-89
2021/08/10 02:30:36;;;;;;;13.30;6.55;;;;;;;;;;5060973;28;20072;-89
2021/08/10 02:33:05;;;;;;;11.35;6.85;;;;;;;;;;5051556;28;20623;-90
2021/08/10 02:35:32;;;;;;;10.48;5.95;;;;;;;;;;5043434;28;20056;-88
2021/08/10 02:38:04;;;;;;;11.63;6.95;;;;;;;;;;5004625;28;20045;-89
2021/08/10 02:40:30;;;;;;;11.45;7.30;;;;;;;;;;5013669;28;20045;-89
2021/08/10 02:42:59;;;;;;;10.13;6.97;;;;;;;;;;5020744;28;20106;-89
2021/08/10 02:45:25;;;;;;;10.48;7.60;;;;;;;;;;5047573;28;20040;-88
2021/08/10 02:47:53;;;;;;;12.73;7.18;;;;;;;;;;5038356;28;20061;-89
2021/08/10 02:50:20;;;;;;;11.80;8.27;;;;;;;;;;5033364;28;20117;-89
2021/08/10 02:52:46;;;;;;;11.45;7.22;;;;;;;;;;5038499;28;20059;-88
2021/08/10 02:55:13;;;;;;;10.48;7.57;;;;;;;;;;5049735;28;20060;-89
2021/08/10 02:57:48;;;;;;;12.23;7.05;;;;;;;;;;5034981;28;20511;-90
2021/08/10 03:00:14;;;;;;;9.82;7.43;;;;;;;;;;5054439;28;20047;-89
2021/08/10 03:02:44;;;;;;;10.32;7.70;;;;;;;;;;5029085;28;20094;-88
2021/08/10 03:05:16;;;;;;;12.10;8.15;;;;;;;;;;5029193;28;20070;-89
2021/08/10 03:07:48;;;;;;;10.43;6.72;;;;;;;;;;5053748;28;20068;-88
2021/08/10 03:10:16;;;;;;;10.90;7.05;;;;;;;;;;5027579;28;20098;-89
2021/08/10 03:12:46;;;;;;;14.27;7.88;;;;;;;;;;5029241;28;20123;-89
2021/08/10 03:15:13;;;;;;;11.63;7.63;;;;;;;;;;5020645;28;20132;-89
2021/08/10 03:17:40;;;;;;;14.55;7.43;;;;;;;;;;5046119;28;20056;-88
2021/08/10 03:20:09;;;;;;;11.02;6.93;;;;;;;;;;5042465;28;20082;-90
2021/08/10 03:22:38;;;;;;;10.30;6.57;;;;;;;;;;5058306;28;20124;-90
2021/08/10 03:25:05;;;;;;;10.75;6.72;;;;;;;;;;5043736;28;20121;-89
2021/08/10 03:27:33;;;;;;;11.65;7.25;;;;;;;;;;5008268;28;20059;-90
2021/08/10 03:30:02;;;;;;;13.68;6.93;;;;;;;;;;5040472;28;20051;-89
2021/08/10 03:32:28;;;;;;;9.45;6.22;;;;;;;;;;5060174;28;21551;-89
2021/08/10 03:34:54;;;;;;;11.35;6.88;;;;;;;;;;5064079;28;20063;-90
2021/08/10 03:37:21;;;;;;;11.70;7.15;;;;;;;;;;5038056;28;20059;-91
2021/08/10 03:39:47;;;;;;;13.82;6.60;;;;;;;;;;5026133;28;20053;-88
2021/08/10 03:42:14;;;;;;;9.73;6.25;;;;;;;;;;5044079;28;20048;-90
2021/08/10 03:44:43;;;;;;;12.40;7.00;;;;;;;;;;5055836;28;20052;-89
2021/08/10 03:47:11;;;;;;;10.45;6.30;;;;;;;;;;5042552;28;20044;-90
2021/08/10 03:49:38;;;;;;;11.98;6.63;;;;;;;;;;5062212;28;20095;-89
2021/08/10 03:52:05;;;;;;;11.55;6.60;;;;;;;;;;5055031;28;20049;-91
2021/08/10 03:54:31;;;;;;;11.15;6.20;;;;;;;;;;5037749;28;20110;-89
2021/08/10 03:56:58;;;;;;;12.45;6.72;;;;;;;;;;5041703;28;20044;-89
2021/08/10 03:59:25;;;;;;;10.63;6.57;;;;;;;;;;5059339;28;20053;-89
2021/08/10 04:01:52;;;;;;;11.98;6.30;;;;;;;;;;5022786;28;20049;-89
2021/08/10 04:04:19;;;;;;;11.80;6.05;;;;;;;;;;5024398;28;20080;-89
2021/08/10 04:06:46;;;;;;;11.57;6.22;;;;;;;;;;5022927;28;20128;-89
2021/08/10 04:09:12;;;;;;;9.52;6.18;;;;;;;;;;5033359;28;20037;-89
2021/08/10 04:11:41;;;;;;;11.00;6.10;;;;;;;;;;5021861;28;20384;-90
2021/08/10 04:14:08;;;;;;;11.63;6.28;;;;;;;;;;5047536;28;20132;-90
2021/08/10 04:16:46;;;;;;;11.32;6.43;;;;;;;;;;5032938;28;20155;-89
2021/08/10 04:19:13;;;;;;;7.78;5.70;;;;;;;;;;5012999;28;20083;-90
2021/08/10 04:21:39;;;;;;;12.88;6.30;;;;;;;;;;5027449;28;20060;-89
2021/08/10 04:24:06;;;;;;;12.60;5.90;;;;;;;;;;5032348;28;20056;-90
2021/08/10 04:26:36;;;;;;;12.25;5.90;;;;;;;;;;5039101;28;20512;-90
2021/08/10 04:29:09;;;;;;;14.05;6.55;;;;;;;;;;5023864;28;20563;-89
2021/08/10 04:31:35;;;;;;;7.43;5.25;;;;;;;;;;5034233;28;20067;-92
2021/08/10 04:34:01;;;;;;;13.30;6.57;;;;;;;;;;5025666;28;20163;-92
2021/08/10 04:36:27;;;;;;;11.98;6.22;;;;;;;;;;5029562;28;20041;-90
2021/08/10 04:38:54;;;;;;;12.90;6.05;;;;;;;;;;5021737;28;20562;-92
2021/08/10 04:41:20;;;;;;;11.57;5.95;;;;;;;;;;5028656;28;20421;-93
2021/08/10 04:43:47;;;;;;;9.52;5.80;;;;;;;;;;5036827;28;20123;-90
2021/08/10 04:46:13;;;;;;;11.15;6.05;;;;;;;;;;5039604;28;20072;-94
2021/08/10 04:48:39;;;;;;;12.23;6.68;;;;;;;;;;5026348;28;20045;-94
2021/08/10 04:51:05;;;;;;;10.27;5.75;;;;;;;;;;5008796;28;20068;-93
2021/08/10 04:53:32;;;;;;;11.85;6.22;;;;;;;;;;5032486;28;20144;-92
2021/08/10 04:55:58;;;;;;;9.13;6.10;;;;;;;;;;5060657;28;20059;-92
2021/08/10 04:58:24;;;;;;;11.38;5.97;;;;;;;;;;5034823;28;20041;-93
2021/08/10 05:00:51;;;;;;;11.00;6.45;;;;;;;;;;5023396;28;20061;-94
2021/08/10 05:03:17;;;;;;;9.07;5.72;;;;;;;;;;5031856;28;20049;-93
2021/08/10 05:05:44;;;;;;;11.75;6.78;;;;;;;;;;5018096;28;20412;-91
2021/08/10 05:08:10;;;;;;;11.35;6.93;;;;;;;;;;5029126;28;20488;-93
2021/08/10 05:10:36;;;;;;;14.52;7.20;;;;;;;;;;5048419;28;20056;-91
2021/08/10 05:13:03;;;;;;;14.52;7.13;;;;;;;;;;5024169;28;20469;-92
2021/08/10 05:15:29;;;;;;;10.93;7.05;;;;;;;;;;5036321;28;20084;-92
2021/08/10 05:17:57;;;;;;;13.82;7.63;;;;;;;;;;5025165;28;20098;-93
2021/08/10 05:20:23;;;;;;;9.85;6.30;;;;;;;;;;5016807;28;20538;-93
2021/08/10 05:22:49;;;;;;;11.45;6.75;;;;;;;;;;5032594;28;20079;-92
2021/08/10 05:25:16;;;;;;;11.38;7.22;;;;;;;;;;5056011;28;20406;-93
2021/08/10 05:27:42;;;;;;;10.98;6.22;;;;;;;;;;5005831;28;20057;-89
2021/08/10 05:30:09;;;;;;;9.48;7.03;;;;;;;;;;5050344;28;20061;-91
2021/08/10 05:32:35;;;;;;;12.23;6.57;;;;;;;;;;5053252;28;20053;-90
2021/08/10 05:35:01;;;;;;;10.90;6.82;;;;;;;;;;5034033;28;20135;-93
2021/08/10 05:37:28;;;;;;;11.35;6.60;;;;;;;;;;5050838;28;20065;-91
2021/08/10 05:39:54;;;;;;;10.55;7.43;;;;;;;;;;5010311;28;20056;-91
2021/08/10 05:42:20;;;;;;;14.20;6.65;;;;;;;;;;5034709;28;20124;-92
2021/08/10 05:44:47;;;;;;;12.85;7.60;;;;;;;;;;5041652;28;20127;-91
2021/08/10 05:47:13;;;;;;;11.95;7.15;;;;;;;;;;5029376;28;20083;-92
2021/08/10 05:49:39;;;;;;;10.90;6.75;;;;;;;;;;5035660;28;20441;-93
2021/08/10 05:52:08;;;;;;;10.70;6.88;;;;;;;;;;5051487;28;20045;-91
2021/08/10 05:54:34;;;;;;;11.98;7.28;;;;;;;;;;5052575;28;20135;-92
2021/08/10 05:57:00;;;;;;;12.02;7.30;;;;;;;;;;5041891;28;20072;-93
2021/08/10 05:59:29;;;;;;;12.63;7.88;;;;;;;;;;5005702;28;20404;-93
2021/08/10 06:01:56;;;;;;;12.38;7.75;;;;;;;;;;5013331;28;20060;-92
2021/08/10 06:04:22;;;;;;;12.40;7.18;;;;;;;;;;5038743;28;20060;-90
2021/08/10 06:06:48;;;;;;;12.32;8.05;;;;;;;;;;5005255;28;20052;-91
2021/08/10 06:09:15;;;;;;;12.13;7.60;;;;;;;;;;5043419;28;20564;-92
2021/08/10 06:11:41;;;;;;;11.32;6.97;;;;;;;;;;5038431;28;20124;-92
2021/08/10 06:14:07;;;;;;;10.40;7.38;;;;;;;;;;5058079;28;20064;-93
2021/08/10 06:16:34;;;;;;;10.32;7.82;;;;;;;;;;5040271;28;20049;-93
2021/08/10 06:19:02;;;;;;;13.32;8.23;;;;;;;;;;5039148;28;20118;-91
2021/08/10 06:21:29;;;;;;;13.10;8.00;;;;;;;;;;5043612;28;20081;-91
2021/08/10 06:23:55;;;;;;;10.80;8.52;;;;;;;;;;5050541;28;20055;-92
2021/08/10 06:26:22;;;;;;;11.25;7.00;;;;;;;;;;5035640;28;20556;-92
2021/08/10 06:28:48;;;;;;;8.23;5.75;;;;;;;;;;5025343;28;20064;-90
2021/08/10 06:31:15;;;;;;;6.22;5.32;;;;;;;;;;5030702;28;20064;-92
2021/08/10 06:33:41;;;;;;;7.35;5.95;;;;;;;;;;5026722;28;20056;-92
2021/08/10 06:36:07;;;;;;;9.20;6.00;;;;;;;;;;5024499;28;20093;-92
2021/08/10 06:38:34;;;;;;;6.53;5.07;;;;;;;;;;5011143;28;20416;-94
2021/08/10 06:41:03;;;;;;;6.85;4.93;;;;;;;;;;5033426;28;20048;-93
2021/08/10 06:43:29;;;;;;;8.80;4.95;;;;;;;;;;5035314;28;20056;-93
2021/08/10 06:45:55;;;;;;;6.88;4.57;;;;;;;;;;5040316;28;20048;-93
2021/08/10 06:48:22;;;;;;;6.32;4.75;;;;;;;;;;5021997;28;20106;-92
2021/08/10 06:50:48;;;;;;;7.63;4.90;;;;;;;;;;5004965;28;20058;-90
2021/08/10 06:53:16;;;;;;;8.77;6.35;;;;;;;;;;5022978;28;20501;-93
2021/08/10 06:55:43;;;;;;;8.80;5.95;;;;;;;;;;5041732;28;20489;-91
2021/08/10 06:58:13;;;;;;;9.88;6.03;;;;;;;;;;5024207;28;20103;-91
2021/08/10 07:00:40;;;;;;;6.90;5.40;;;;;;;;;;5019846;28;20486;-93
2021/08/10 07:03:07;;;;;;;6.13;5.00;;;;;;;;;;5019231;28;20040;-94
2021/08/10 07:05:33;;;;;;;8.10;5.30;;;;;;;;;;5020345;28;20068;-92
2021/08/10 07:08:00;;;;;;;6.50;5.10;;;;;;;;;;5035122;28;20053;-92
2021/08/10 07:10:26;;;;;;;7.15;5.40;;;;;;;;;;5035595;28;20037;-93
2021/08/10 07:12:52;;;;;;;8.88;6.25;;;;;;;;;;5018779;28;20067;-92
2021/08/10 07:15:20;;;;;;;7.38;5.65;;;;;;;;;;5009687;28;20056;-93
2021/08/10 07:17:46;;;;;;;9.80;6.25;;;;;;;;;;5006910;28;20049;-90
2021/08/10 07:20:13;;;;;;;7.68;5.80;;;;;;;;;;5007810;28;20041;-92
2021/08/10 07:22:39;;;;;;;7.32;5.55;;;;;;;;;;5034059;28;20382;-92
2021/08/10 07:25:06;;;;;;;8.27;5.32;;;;;;;;;;5012361;28;20044;-94
2021/08/10 07:27:32;;;;;;;7.88;5.55;;;;;;;;;;5027091;28;20053;-92
2021/08/10 07:30:00;;;;;;;10.07;7.13;;;;;;;;;;5009593;28;20119;-92
2021/08/10 07:32:26;;;;;;;7.82;5.90;;;;;;;;;;5004647;28;20041;-93
2021/08/10 07:34:52;;;;;;;9.45;6.25;;;;;;;;;;5023273;28;20069;-92
2021/08/10 07:37:18;;;;;;;10.15;5.10;;;;;;;;;;5017990;28;20077;-92
2021/08/10 07:39:45;;;;;;;6.53;5.38;;;;;;;;;;5020821;28;20103;-93
2021/08/10 07:42:11;;;;;;;8.43;5.10;;;;;;;;;;4989408;28;20136;-91
2021/08/10 07:44:37;;;;;;;6.32;5.03;;;;;;;;;;5050373;28;20098;-93
2021/08/10 07:47:06;;;;;;;8.73;5.25;;;;;;;;;;5003650;28;20457;-91
2021/08/10 07:49:34;;;;;;;8.07;5.57;;;;;;;;;;4990357;28;20045;-91
2021/08/10 07:52:00;;;;;;;7.07;5.15;;;;;;;;;;4993923;28;20575;-92
2021/08/10 07:54:27;;;;;;;7.10;5.70;;;;;;;;;;5018028;28;20063;-91
2021/08/10 07:56:53;;;;;;;6.72;4.95;;;;;;;;;;5001073;28;20060;-91
2021/08/10 07:59:25;;;;;;;7.28;5.40;;;;;;;;;;5014529;28;20076;-91
2021/08/10 08:01:55;;;;;;;7.15;5.40;;;;;;;;;;5000715;28;20812;-93
2021/08/10 08:04:21;;;;;;;8.88;6.45;;;;;;;;;;5012889;28;20088;-91
2021/08/10 08:06:48;;;;;;;8.35;5.55;;;;;;;;;;5007932;28;20053;-91
2021/08/10 08:09:14;;;;;;;9.20;6.15;;;;;;;;;;5040666;28;20413;-90
2021/08/10 08:11:40;;;;;;;8.75;5.50;;;;;;;;;;5037288;28;20063;-89
2021/08/10 08:14:07;;;;;;;7.55;6.40;;;;;;;;;;5031086;28;20122;-89
2021/08/10 08:16:33;;;;;;;9.70;6.30;;;;;;;;;;5022166;28;20053;-89
2021/08/10 08:18:59;;;;;;;10.45;6.47;;;;;;;;;;5035974;28;20053;-90
2021/08/10 08:21:25;;;;;;;8.52;6.68;;;;;;;;;;5046955;28;20053;-90
2021/08/10 08:23:52;;;;;;;7.68;6.22;;;;;;;;;;5045437;28;20182;-89
2021/08/10 08:26:22;;;;;;;8.75;5.68;;;;;;;;;;5025527;28;20045;-89
2021/08/10 08:28:48;;;;;;;6.32;5.13;;;;;;;;;;5006132;28;20050;-88
2021/08/10 08:31:15;;;;;;;8.88;5.40;;;;;;;;;;5034795;28;20556;-89
2021/08/10 08:33:41;;;;;;;9.55;5.70;;;;;;;;;;5043338;28;20057;-88
2021/08/10 08:36:08;;;;;;;9.23;5.22;;;;;;;;;;5009981;28;20305;-87
2021/08/10 08:38:34;;;;;;;5.50;4.45;;;;;;;;;;5035666;28;20059;-88
2021/08/10 08:41:00;;;;;;;8.15;4.90;;;;;;;;;;5030060;28;20050;-86
2021/08/10 08:43:26;;;;;;;9.45;5.32;;;;;;;;;;5036954;28;20413;-85
2021/08/10 08:45:52;;;;;;;8.07;5.10;;;;;;;;;;5014412;28;21023;-85
2021/08/10 08:48:20;;;;;;;10.25;4.97;;;;;;;;;;5024342;28;20053;-86
2021/08/10 08:50:49;;;;;;;9.73;5.28;;;;;;;;;;5037398;28;20050;-87
2021/08/10 08:53:16;;;;;;;9.15;6.05;;;;;;;;;;5033309;28;20581;-87
2021/08/10 08:55:46;;;;;;;8.10;5.63;;;;;;;;;;5029230;28;20053;-86
2021/08/10 08:58:13;;;;;;;8.18;5.10;;;;;;;;;;5012604;28;20118;-86
2021/08/10 09:00:40;;;;;;;9.07;5.93;;;;;;;;;;5042256;28;20054;-86
2021/08/10 09:03:06;;;;;;;6.38;4.80;;;;;;;;;;5021021;28;20488;-86
2021/08/10 09:05:35;;;;;;;7.63;5.18;;;;;;;;;;5029075;28;20397;-86
2021/08/10 09:08:19;;;;;;;8.85;6.20;;;;;;;;;;5013494;28;20138;-86
2021/08/10 09:10:53;;;;;;;9.48;6.15;;;;;;;;;;5040303;28;20124;-86
2021/08/10 09:13:19;;;;;;;8.90;5.72;;;;;;;;;;5022566;28;20057;-85
2021/08/10 09:15:46;;;;;;;10.43;5.85;;;;;;;;;;5028628;28;20045;-86
2021/08/10 09:18:16;;;;;;;11.55;5.95;;;;;;;;;;5020600;28;20065;-87
2021/08/10 09:20:58;;;;;;;8.15;5.43;;;;;;;;;;5016016;28;20082;-89
2021/08/10 09:23:42;;;;;;;7.50;4.78;;;;;;;;;;4981157;28;20068;-89
2021/08/10 09:26:12;;;;;;;6.97;4.80;;;;;;;;;;5009443;28;20072;-88
2021/08/10 09:28:41;;;;;;;8.15;5.57;;;;;;;;;;5025429;28;20059;-90
2021/08/10 09:31:26;;;;;;;7.43;5.57;;;;;;;;;;4984872;28;20669;-89
2021/08/10 09:34:01;;;;;;;8.90;5.32;;;;;;;;;;4995437;28;20147;-89
2021/08/10 09:36:27;;;;;;;7.63;5.25;;;;;;;;;;4983284;28;20056;-90
2021/08/10 09:38:56;;;;;;;7.07;5.15;;;;;;;;;;4996960;28;20138;-90
2021/08/10 09:41:25;;;;;;;9.05;5.57;;;;;;;;;;5018074;28;20065;-90
2021/08/10 09:44:05;;;;;;;10.38;6.00;;;;;;;;;;4999328;28;20053;-92
2021/08/10 09:46:39;;;;;;;8.15;5.60;;;;;;;;;;4982812;28;20049;-91
2021/08/10 09:49:07;;;;;;;11.40;6.15;;;;;;;;;;5010837;28;20060;-91
2021/08/10 09:51:40;;;;;;;8.30;5.80;;;;;;;;;;4988031;28;20404;-90
2021/08/10 09:54:14;;;;;;;9.77;7.07;;;;;;;;;;5005997;28;20092;-89
2021/08/10 09:56:44;;;;;;;9.23;6.20;;;;;;;;;;5043728;28;20045;-89
2021/08/10 09:59:21;;;;;;;12.65;7.25;;;;;;;;;;5029473;28;20057;-88
2021/08/10 10:01:48;;;;;;;12.88;7.90;;;;;;;;;;5027676;28;20053;-88
2021/08/10 10:04:14;;;;;;;10.68;7.05;;;;;;;;;;5025707;28;20053;-88
2021/08/10 10:06:41;;;;;;;14.10;7.47;;;;;;;;;;5037914;28;20400;-88
2021/08/10 10:09:08;;;;;;;12.98;6.68;;;;;;;;;;5049554;28;20133;-88
2021/08/10 10:11:35;;;;;;;10.27;7.07;;;;;;;;;;5026319;28;20100;-88
2021/08/10 10:14:02;;;;;;;9.57;6.38;;;;;;;;;;5026102;28;20045;-87
2021/08/10 10:16:28;;;;;;;10.98;6.45;;;;;;;;;;5034272;28;20071;-90
2021/08/10 10:18:57;;;;;;;10.63;6.50;;;;;;;;;;5019469;28;20501;-91
2021/08/10 10:21:24;;;;;;;9.73;5.05;;;;;;;;;;5020095;28;20536;-90
2021/08/10 10:23:53;;;;;;;8.68;5.15;;;;;;;;;;4990181;28;20056;-92
2021/08/10 10:26:21;;;;;;;7.20;4.30;;;;;;;;;;5031552;28;20132;-91
2021/08/10 10:28:48;;;;;;;6.72;4.95;;;;;;;;;;5022970;28;20416;-89
2021/08/10 10:31:19;;;;;;;8.30;4.65;;;;;;;;;;4985730;28;20057;-92
2021/08/10 10:33:45;;;;;;;6.43;4.32;;;;;;;;;;5003139;28;20057;-92
2021/08/10 10:36:15;;;;;;;6.72;4.75;;;;;;;;;;5008864;28;20059;-91
2021/08/10 10:39:13;;;;;;;;;;;;;;;;;;;;;
2021/08/10 10:41:45;;;;;;;7.88;5.10;;;;;;;;;;4992394;28;20581;-92
2021/08/10 10:44:13;;;;;;;8.48;4.80;;;;;;;;;;4940831;28;20108;-91
2021/08/10 10:46:42;;;;;;;7.25;4.38;;;;;;;;;;4936089;28;20051;-93
2021/08/10 10:49:11;;;;;;;8.00;4.60;;;;;;;;;;4948484;28;20073;-92
2021/08/10 10:51:39;;;;;;;7.38;4.30;;;;;;;;;;4994355;28;20057;-93
2021/08/10 10:57:33;;;;;;;7.75;4.57;;;;;;;;;;4986284;28;20049;-95
2021/08/10 11:00:04;;;;;;;5.32;4.07;;;;;;;;;;4997748;28;20060;-92
2021/08/10 11:02:40;;;;;;;6.35;3.80;;;;;;;;;;5035400;28;20064;-94
2021/08/10 11:05:10;;;;;;;7.88;4.32;;;;;;;;;;5019724;28;20077;-93
2021/08/10 11:07:50;;;;;;;7.30;4.63;;;;;;;;;;5000044;28;20154;-94
2021/08/10 11:10:35;;;;;;;7.90;5.40;;;;;;;;;;4974451;28;20052;-94
2021/08/10 11:13:06;;;;;;;10.27;6.50;;;;;;;;;;5050982;28;20056;-94
2021/08/10 11:15:44;;;;;;;8.35;5.80;;;;;;;;;;5020915;28;20143;-93
2021/08/10 11:18:13;;;;;;;7.90;5.78;;;;;;;;;;5006129;28;20126;-91
2021/08/10 11:20:40;;;;;;;10.38;5.90;;;;;;;;;;5010780;28;20141;-94
2021/08/10 11:23:38;;;;;;;8.65;5.15;;;;;;;;;;5011966;28;20078;-92
2021/08/10 11:26:09;;;;;;;8.80;5.50;;;;;;;;;;4991308;28;20463;-91
2021/08/10 11:28:52;;;;;;;7.82;5.47;;;;;;;;;;4979644;28;20050;-93
2021/08/10 11:31:32;;;;;;;9.35;5.65;;;;;;;;;;4981078;28;20088;-90
2021/08/10 11:33:58;;;;;;;8.40;5.45;;;;;;;;;;5030514;28;20045;-91
2021/08/10 11:36:25;;;;;;;7.70;5.20;;;;;;;;;;5051298;28;20053;-91
2021/08/10 11:38:52;;;;;;;9.13;5.75;;;;;;;;;;5035456;28;20065;-90
2021/08/10 11:41:32;;;;;;;8.05;5.93;;;;;;;;;;5029633;28;20045;-87
2021/08/10 11:44:19;;;;;;;8.60;5.50;;;;;;;;;;5020431;28;20106;-88
2021/08/10 11:46:45;;;;;;;8.00;6.05;;;;;;;;;;5037073;28;20053;-87
2021/08/10 11:49:16;;;;;;;6.78;5.38;;;;;;;;;;5036300;28;20041;-88
2021/08/10 11:51:43;;;;;;;8.60;5.10;;;;;;;;;;5058601;28;20065;-88
2021/08/10 11:54:18;;;;;;;8.15;5.18;;;;;;;;;;5022024;28;20406;-88
2021/08/10 11:56:45;;;;;;;6.95;4.80;;;;;;;;;;5044904;28;20060;-89
2021/08/10 11:59:25;;;;;;;7.85;5.05;;;;;;;;;;5026255;28;20139;-89
2021/08/10 12:01:51;;;;;;;5.93;4.32;;;;;;;;;;5038949;28;20049;-90
2021/08/10 12:04:22;;;;;;;6.63;3.85;;;;;;;;;;5038163;28;20101;-88
2021/08/10 12:06:49;;;;;;;6.95;4.40;;;;;;;;;;5036511;28;20076;-88
2021/08/10 12:09:16;;;;;;;5.80;4.18;;;;;;;;;;5044233;28;20418;-89
2021/08/10 12:11:44;;;;;;;5.93;4.22;;;;;;;;;;5045483;28;20496;-88
2021/08/10 12:14:14;;;;;;;6.60;4.95;;;;;;;;;;5050182;28;20179;-90
2021/08/10 12:16:57;;;;;;;7.82;4.32;;;;;;;;;;5000919;28;20057;-88
2021/08/10 12:19:32;;;;;;;6.13;3.92;;;;;;;;;;5027324;28;20049;-88
2021/08/10 12:21:59;;;;;;;5.32;3.28;;;;;;;;;;5051164;28;20048;-91
2021/08/10 12:24:26;;;;;;;4.95;3.17;;;;;;;;;;5049019;28;20065;-88
2021/08/10 12:26:58;;;;;;;4.13;3.13;;;;;;;;;;4998901;28;20419;-89
2021/08/10 12:29:37;;;;;;;6.25;3.00;;;;;;;;;;5012378;28;20060;-90
2021/08/10 12:32:04;;;;;;;3.50;2.70;;;;;;;;;;5021096;28;20180;-88
2021/08/10 12:34:32;;;;;;;6.30;3.28;;;;;;;;;;5002057;28;20053;-89
2021/08/10 12:36:59;;;;;;;4.53;3.13;;;;;;;;;;5012977;28;20064;-90
2021/08/10 12:39:27;;;;;;;3.97;3.20;;;;;;;;;;4994100;28;20516;-88
2021/08/10 12:41:57;;;;;;;4.88;3.30;;;;;;;;;;4995474;28;20132;-90
2021/08/10 12:44:24;;;;;;;7.70;3.28;;;;;;;;;;4974363;28;20052;-89
2021/08/10 12:46:54;;;;;;;4.38;3.00;;;;;;;;;;5013938;28;20057;-88
2021/08/10 12:49:20;;;;;;;6.47;3.42;;;;;;;;;;5029471;28;20049;-89
2021/08/10 12:51:49;;;;;;;4.55;3.03;;;;;;;;;;5029925;28;20065;-88
2021/08/10 12:54:15;;;;;;;5.07;3.30;;;;;;;;;;5042142;28;20045;-91
2021/08/10 12:56:41;;;;;;;4.45;3.28;;;;;;;;;;5042055;28;20478;-89
2021/08/10 12:59:08;;;;;;;4.38;3.20;;;;;;;;;;5038233;28;20049;-89
2021/08/10 13:01:40;;;;;;;4.20;2.80;;;;;;;;;;5066216;28;20516;-89
2021/08/10 13:04:10;;;;;;;4.65;3.05;;;;;;;;;;5049519;28;20144;-89
2021/08/10 13:06:37;;;;;;;5.18;3.30;;;;;;;;;;5051318;28;20056;-90
2021/08/10 13:09:06;;;;;;;4.53;2.90;;;;;;;;;;5056965;28;20085;-92
2021/08/10 13:11:33;;;;;;;4.50;3.42;;;;;;;;;;5039219;28;20432;-91
2021/08/10 13:14:10;;;;;;;5.95;3.13;;;;;;;;;;5049950;28;20052;-87
2021/08/10 13:16:37;;;;;;;7.25;2.92;;;;;;;;;;5031284;28;20049;-88
2021/08/10 13:19:12;;;;;;;3.78;2.60;;;;;;;;;;5028749;28;20049;-88
2021/08/10 13:21:42;;;;;;;5.75;3.28;;;;;;;;;;5028473;28;20088;-88
2021/08/10 13:24:09;;;;;;;6.22;2.95;;;;;;;;;;5044667;28;20111;-88
2021/08/10 13:26:45;;;;;;;5.10;2.97;;;;;;;;;;5065103;28;20061;-89
2021/08/10 13:29:11;;;;;;;4.43;3.00;;;;;;;;;;5049326;28;20049;-90
2021/08/10 13:31:47;;;;;;;5.82;2.72;;;;;;;;;;5050374;28;20084;-89
2021/08/10 13:34:13;;;;;;;5.45;3.20;;;;;;;;;;5047730;28;20822;-89
2021/08/10 13:36:39;;;;;;;4.05;3.10;;;;;;;;;;5049543;28;20095;-89
2021/08/10 13:39:07;;;;;;;4.72;3.30;;;;;;;;;;5042514;28;20056;-89
2021/08/10 13:41:34;;;;;;;5.97;3.30;;;;;;;;;;5041170;28;20045;-90
2021/08/10 13:44:01;;;;;;;5.10;3.17;;;;;;;;;;5037994;28;20091;-91
2021/08/10 13:46:29;;;;;;;6.28;3.60;;;;;;;;;;5040275;28;20033;-91
2021/08/10 13:48:55;;;;;;;4.57;3.50;;;;;;;;;;5034685;28;20060;-89
2021/08/10 13:51:22;;;;;;;5.90;3.40;;;;;;;;;;5038785;28;20048;-89
2021/08/10 13:53:51;;;;;;;4.35;2.92;;;;;;;;;;5039180;28;20146;-93
2021/08/10 13:56:17;;;;;;;3.78;2.90;;;;;;;;;;4990595;28;20068;-91
2021/08/10 13:58:52;;;;;;;4.22;3.08;;;;;;;;;;5001451;28;20118;-91
2021/08/10 14:01:28;;;;;;;5.70;3.30;;;;;;;;;;4987544;28;20044;-93
2021/08/10 14:03:55;;;;;;;5.45;3.40;;;;;;;;;;5021542;28;20071;-94
2021/08/10 14:06:23;;;;;;;4.25;3.40;;;;;;;;;;4986777;28;20053;-93
2021/08/10 14:08:51;;;;;;;6.65;3.67;;;;;;;;;;4956057;28;20538;-92
2021/08/10 14:11:17;;;;;;;4.80;3.40;;;;;;;;;;5010468;28;20501;-92
2021/08/10 14:13:45;;;;;;;5.47;3.35;;;;;;;;;;4977047;28;20049;-92
2021/08/10 14:16:14;;;;;;;3.65;3.25;;;;;;;;;;4999751;28;20053;-93
2021/08/10 14:18:41;;;;;;;6.38;3.83;;;;;;;;;;4989608;28;20061;-93
2021/08/10 14:21:07;;;;;;;4.80;3.13;;;;;;;;;;4997786;28;20141;-89
2021/08/10 14:23:34;;;;;;;4.70;2.97;;;;;;;;;;5033676;28;20053;-91
2021/08/10 14:26:01;;;;;;;4.63;3.15;;;;;;;;;;5041109;28;20124;-91
2021/08/10 14:28:28;;;;;;;4.68;3.42;;;;;;;;;;5018540;28;20163;-91
2021/08/10 14:30:54;;;;;;;4.75;3.38;;;;;;;;;;5020530;28;20056;-91
2021/08/10 14:33:21;;;;;;;5.75;3.63;;;;;;;;;;4995064;28;20080;-90
2021/08/10 14:35:48;;;;;;;4.93;3.17;;;;;;;;;;5000928;28;20096;-88
2021/08/10 14:38:14;;;;;;;4.70;3.00;;;;;;;;;;5017824;28;20144;-89
2021/08/10 14:40:57;;;;;;;6.43;3.53;;;;;;;;;;4992795;28;20296;-88
2021/08/10 14:43:23;;;;;;;5.32;3.67;;;;;;;;;;4994869;28;20053;-88
2021/08/10 14:45:53;;;;;;;4.22;3.40;;;;;;;;;;5022017;28;20068;-89
2021/08/10 14:48:21;;;;;;;7.25;3.75;;;;;;;;;;5026264;28;20056;-88